sensor_id;sensor_type;location;lat;lon;timestamp;pressure;altitude;pressure_sealevel;temperature;humidity
67015;BME280;1033;52.560;13.374;2022-07-25T00:00:09;101037.41;;;20.81;47.18
67015;BME280;1033;52.560;13.374;2022-07-25T00:02:40;101036.03;;;20.84;47.01
67015;BME280;1033;52.560;13.374;2022-07-25T00:05:11;101034.94;;;20.85;46.71
67015;BME280;1033;52.560;13.374;2022-07-25T00:07:39;101032.38;;;20.73;46.80
67015;BME280;1033;52.560;13.374;2022-07-25T00:10:09;101030.47;;;20.74;46.98
67015;BME280;1033;52.560;13.374;2022-07-25T00:12:38;101023.56;;;20.66;47.25
67015;BME280;1033;52.560;13.374;2022-07-25T00:15:09;101027.19;;;20.72;47.36
67015;BME280;1033;52.560;13.374;2022-07-25T00:17:39;101021.34;;;20.68;47.32
67015;BME280;1033;52.560;13.374;2022-07-25T00:20:09;101020.53;;;20.68;47.30
67015;BME280;1033;52.560;13.374;2022-07-25T00:22:38;101006.84;;;20.83;46.57
67015;BME280;1033;52.560;13.374;2022-07-25T00:25:08;101009.34;;;20.85;46.71
67015;BME280;1033;52.560;13.374;2022-07-25T00:27:37;101003.84;;;20.85;46.29
67015;BME280;1033;52.560;13.374;2022-07-25T00:30:07;101001.31;;;20.73;46.65
67015;BME280;1033;52.560;13.374;2022-07-25T00:32:36;100999.09;;;20.70;46.98
67015;BME280;1033;52.560;13.374;2022-07-25T00:35:07;100999.91;;;20.65;47.18
67015;BME280;1033;52.560;13.374;2022-07-25T00:37:36;101001.25;;;20.63;47.23
67015;BME280;1033;52.560;13.374;2022-07-25T00:40:06;100999.66;;;20.72;47.29
67015;BME280;1033;52.560;13.374;2022-07-25T00:42:35;100996.34;;;20.70;47.24
67015;BME280;1033;52.560;13.374;2022-07-25T00:45:05;100999.63;;;20.62;47.55
67015;BME280;1033;52.560;13.374;2022-07-25T00:47:35;100996.84;;;20.57;47.66
67015;BME280;1033;52.560;13.374;2022-07-25T00:50:07;100991.34;;;20.57;47.92
67015;BME280;1033;52.560;13.374;2022-07-25T00:52:36;100981.69;;;20.54;47.55
67015;BME280;1033;52.560;13.374;2022-07-25T00:55:06;100984.44;;;20.54;47.87
67015;BME280;1033;52.560;13.374;2022-07-25T00:57:35;100984.41;;;20.49;47.98
67015;BME280;1033;52.560;13.374;2022-07-25T01:00:07;100979.66;;;20.39;48.42
67015;BME280;1033;52.560;13.374;2022-07-25T01:02:37;100974.78;;;20.47;47.91
67015;BME280;1033;52.560;13.374;2022-07-25T01:05:09;100979.22;;;20.58;47.62
67015;BME280;1033;52.560;13.374;2022-07-25T01:07:38;100979.97;;;20.48;47.76
67015;BME280;1033;52.560;13.374;2022-07-25T01:10:08;100982.16;;;20.41;48.33
67015;BME280;1033;52.560;13.374;2022-07-25T01:12:47;100978.06;;;20.49;47.84
67015;BME280;1033;52.560;13.374;2022-07-25T01:15:17;100977.19;;;20.43;47.66
67015;BME280;1033;52.560;13.374;2022-07-25T01:17:46;100980.16;;;20.31;48.06
67015;BME280;1033;52.560;13.374;2022-07-25T01:20:18;100967.38;;;20.15;48.41
67015;BME280;1033;52.560;13.374;2022-07-25T01:22:47;100977.06;;;20.23;48.55
67015;BME280;1033;52.560;13.374;2022-07-25T01:25:17;100971.03;;;20.26;48.05
67015;BME280;1033;52.560;13.374;2022-07-25T01:27:47;100967.94;;;20.17;48.35
67015;BME280;1033;52.560;13.374;2022-07-25T01:30:23;100964.50;;;20.00;48.63
67015;BME280;1033;52.560;13.374;2022-07-25T01:32:52;100961.03;;;20.15;48.31
67015;BME280;1033;52.560;13.374;2022-07-25T01:35:23;100950.91;;;20.20;47.90
67015;BME280;1033;52.560;13.374;2022-07-25T01:37:52;100956.44;;;20.25;47.66
67015;BME280;1033;52.560;13.374;2022-07-25T01:40:22;100953.66;;;20.20;48.37
67015;BME280;1033;52.560;13.374;2022-07-25T01:42:51;100950.81;;;20.05;48.49
67015;BME280;1033;52.560;13.374;2022-07-25T01:45:20;100948.91;;;20.06;48.20
67015;BME280;1033;52.560;13.374;2022-07-25T01:47:49;100941.19;;;20.03;48.40
67015;BME280;1033;52.560;13.374;2022-07-25T01:50:18;100944.22;;;20.06;47.72
67015;BME280;1033;52.560;13.374;2022-07-25T01:52:49;100941.78;;;20.10;48.08
67015;BME280;1033;52.560;13.374;2022-07-25T01:55:18;100941.13;;;19.92;48.10
67015;BME280;1033;52.560;13.374;2022-07-25T01:57:47;100938.66;;;19.96;48.25
67015;BME280;1033;52.560;13.374;2022-07-25T02:00:17;100940.31;;;19.97;48.52
67015;BME280;1033;52.560;13.374;2022-07-25T02:02:46;100941.03;;;19.82;48.50
67015;BME280;1033;52.560;13.374;2022-07-25T02:05:15;100928.16;;;19.88;48.54
67015;BME280;1033;52.560;13.374;2022-07-25T02:07:44;100931.50;;;19.95;48.00
67015;BME280;1033;52.560;13.374;2022-07-25T02:10:15;100925.97;;;19.90;48.51
67015;BME280;1033;52.560;13.374;2022-07-25T02:12:44;100917.84;;;19.68;48.91
67015;BME280;1033;52.560;13.374;2022-07-25T02:15:13;100918.53;;;19.85;48.31
67015;BME280;1033;52.560;13.374;2022-07-25T02:17:42;100923.03;;;19.65;49.08
67015;BME280;1033;52.560;13.374;2022-07-25T02:20:11;100922.94;;;19.55;49.09
67015;BME280;1033;52.560;13.374;2022-07-25T02:22:40;100915.06;;;19.63;49.28
67015;BME280;1033;52.560;13.374;2022-07-25T02:25:10;100914.44;;;19.56;49.28
67015;BME280;1033;52.560;13.374;2022-07-25T02:27:40;100913.69;;;19.66;48.69
67015;BME280;1033;52.560;13.374;2022-07-25T02:30:10;100904.63;;;19.60;49.23
67015;BME280;1033;52.560;13.374;2022-07-25T02:32:39;100901.38;;;19.41;49.54
67015;BME280;1033;52.560;13.374;2022-07-25T02:35:09;100900.06;;;19.44;49.38
67015;BME280;1033;52.560;13.374;2022-07-25T02:37:40;100903.97;;;19.53;48.92
67015;BME280;1033;52.560;13.374;2022-07-25T02:40:10;100900.06;;;19.44;49.42
67015;BME280;1033;52.560;13.374;2022-07-25T02:42:41;100888.22;;;19.43;49.09
67015;BME280;1033;52.560;13.374;2022-07-25T02:45:10;100885.34;;;19.55;49.28
67015;BME280;1033;52.560;13.374;2022-07-25T02:47:40;100889.06;;;19.76;48.54
67015;BME280;1033;52.560;13.374;2022-07-25T02:50:09;100887.81;;;19.57;48.99
67015;BME280;1033;52.560;13.374;2022-07-25T02:52:41;100885.13;;;19.62;48.64
67015;BME280;1033;52.560;13.374;2022-07-25T02:55:11;100884.16;;;19.78;48.17
67015;BME280;1033;52.560;13.374;2022-07-25T02:57:41;100879.94;;;19.65;49.08
67015;BME280;1033;52.560;13.374;2022-07-25T03:00:13;100879.63;;;19.62;48.91
67015;BME280;1033;52.560;13.374;2022-07-25T03:02:43;100879.63;;;19.62;49.11
67015;BME280;1033;52.560;13.374;2022-07-25T03:05:14;100879.63;;;19.62;49.20
67015;BME280;1033;52.560;13.374;2022-07-25T03:07:44;100879.13;;;19.65;49.39
67015;BME280;1033;52.560;13.374;2022-07-25T03:10:14;100875.88;;;19.73;48.38
67015;BME280;1033;52.560;13.374;2022-07-25T03:12:45;100875.97;;;19.51;49.36
67015;BME280;1033;52.560;13.374;2022-07-25T03:15:14;100872.41;;;19.50;49.75
67015;BME280;1033;52.560;13.374;2022-07-25T03:17:43;100867.31;;;19.37;49.81
67015;BME280;1033;52.560;13.374;2022-07-25T03:20:12;100860.69;;;19.33;49.92
67015;BME280;1033;52.560;13.374;2022-07-25T03:22:41;100863.03;;;19.46;49.27
67015;BME280;1033;52.560;13.374;2022-07-25T03:25:11;100860.16;;;19.63;49.05
67015;BME280;1033;52.560;13.374;2022-07-25T03:27:49;100857.22;;;19.75;48.69
67015;BME280;1033;52.560;13.374;2022-07-25T03:30:19;100851.63;;;19.60;48.94
67015;BME280;1033;52.560;13.374;2022-07-25T03:32:48;100849.53;;;19.77;48.85
67015;BME280;1033;52.560;13.374;2022-07-25T03:35:17;100855.56;;;19.74;48.77
67015;BME280;1033;52.560;13.374;2022-07-25T03:37:46;100848.72;;;19.76;49.20
67015;BME280;1033;52.560;13.374;2022-07-25T03:40:17;100845.38;;;20.11;47.99
67015;BME280;1033;52.560;13.374;2022-07-25T03:42:48;100853.16;;;20.29;47.70
67015;BME280;1033;52.560;13.374;2022-07-25T03:45:17;100844.88;;;20.24;47.93
67015;BME280;1033;52.560;13.374;2022-07-25T03:47:46;100840.47;;;20.18;47.59
67015;BME280;1033;52.560;13.374;2022-07-25T03:50:15;100841.09;;;20.30;47.41
67015;BME280;1033;52.560;13.374;2022-07-25T03:52:44;100837.41;;;20.62;47.09
67015;BME280;1033;52.560;13.374;2022-07-25T03:55:13;100844.56;;;20.73;46.37
67015;BME280;1033;52.560;13.374;2022-07-25T03:57:43;100841.28;;;20.76;46.34
67015;BME280;1033;52.560;13.374;2022-07-25T04:00:14;100844.88;;;20.92;46.22
67015;BME280;1033;52.560;13.374;2022-07-25T04:02:44;100836.47;;;21.34;45.43
67015;BME280;1033;52.560;13.374;2022-07-25T04:05:13;100832.25;;;22.17;43.83
67015;BME280;1033;52.560;13.374;2022-07-25T04:07:42;100828.94;;;22.84;41.91
67015;BME280;1033;52.560;13.374;2022-07-25T04:10:11;100825.91;;;23.20;41.66
67015;BME280;1033;52.560;13.374;2022-07-25T04:12:40;100828.91;;;24.20;39.88
67015;BME280;1033;52.560;13.374;2022-07-25T04:15:09;100820.19;;;25.30;37.92
67015;BME280;1033;52.560;13.374;2022-07-25T04:17:40;100824.78;;;25.53;37.09
67015;BME280;1033;52.560;13.374;2022-07-25T04:20:11;100818.97;;;25.36;37.75
67015;BME280;1033;52.560;13.374;2022-07-25T04:22:40;100820.19;;;25.30;37.32
67015;BME280;1033;52.560;13.374;2022-07-25T04:25:13;100814.03;;;25.33;37.40
67015;BME280;1033;52.560;13.374;2022-07-25T04:27:44;100814.06;;;25.66;36.97
67015;BME280;1033;52.560;13.374;2022-07-25T04:30:13;100809.88;;;26.91;35.27
67015;BME280;1033;52.560;13.374;2022-07-25T04:32:53;100813.88;;;27.96;33.75
67015;BME280;1033;52.560;13.374;2022-07-25T04:35:23;100815.38;;;28.42;32.94
67015;BME280;1033;52.560;13.374;2022-07-25T04:37:52;100805.97;;;29.29;31.27
67015;BME280;1033;52.560;13.374;2022-07-25T04:40:21;100799.59;;;29.46;31.21
67015;BME280;1033;52.560;13.374;2022-07-25T04:42:50;100788.25;;;29.59;31.17
67015;BME280;1033;52.560;13.374;2022-07-25T04:45:19;100788.28;;;29.42;30.84
67015;BME280;1033;52.560;13.374;2022-07-25T04:47:48;100782.03;;;29.45;30.66
67015;BME280;1033;52.560;13.374;2022-07-25T04:50:19;100767.78;;;29.47;30.69
67015;BME280;1033;52.560;13.374;2022-07-25T04:52:52;100762.59;;;29.74;30.37
67015;BME280;1033;52.560;13.374;2022-07-25T04:55:21;100754.72;;;29.76;30.33
67015;BME280;1033;52.560;13.374;2022-07-25T04:57:50;100750.22;;;29.46;30.83
67015;BME280;1033;52.560;13.374;2022-07-25T05:00:19;100741.50;;;30.03;30.11
67015;BME280;1033;52.560;13.374;2022-07-25T05:02:50;100747.75;;;30.58;29.42
67015;BME280;1033;52.560;13.374;2022-07-25T05:05:21;100741.63;;;30.86;29.06
67015;BME280;1033;52.560;13.374;2022-07-25T05:07:55;100748.03;;;31.07;28.69
67015;BME280;1033;52.560;13.374;2022-07-25T05:10:25;100749.22;;;31.18;28.77
67015;BME280;1033;52.560;13.374;2022-07-25T05:12:55;100741.91;;;31.59;28.32
67015;BME280;1033;52.560;13.374;2022-07-25T05:15:24;100740.91;;;31.30;28.46
67015;BME280;1033;52.560;13.374;2022-07-25T05:17:53;100744.91;;;30.88;28.54
67015;BME280;1033;52.560;13.374;2022-07-25T05:20:24;100735.34;;;31.55;28.09
67015;BME280;1033;52.560;13.374;2022-07-25T05:22:54;100738.69;;;31.81;27.82
67015;BME280;1033;52.560;13.374;2022-07-25T05:25:23;100732.03;;;31.98;27.66
67015;BME280;1033;52.560;13.374;2022-07-25T05:27:52;100737.34;;;31.54;28.07
67015;BME280;1033;52.560;13.374;2022-07-25T05:30:24;100732.03;;;31.98;27.68
67015;BME280;1033;52.560;13.374;2022-07-25T05:32:53;100741.47;;;32.05;27.92
67015;BME280;1033;52.560;13.374;2022-07-25T05:35:24;100734.25;;;31.68;28.44
67015;BME280;1033;52.560;13.374;2022-07-25T05:37:53;100733.22;;;28.70;31.61
67015;BME280;1033;52.560;13.374;2022-07-25T05:40:22;100725.31;;;26.83;35.09
67015;BME280;1033;52.560;13.374;2022-07-25T05:42:51;100727.09;;;25.62;36.95
67015;BME280;1033;52.560;13.374;2022-07-25T05:45:25;100724.59;;;24.82;38.38
67015;BME280;1033;52.560;13.374;2022-07-25T05:47:54;100726.47;;;24.49;39.34
67015;BME280;1033;52.560;13.374;2022-07-25T05:50:25;100726.31;;;24.40;39.89
67015;BME280;1033;52.560;13.374;2022-07-25T05:52:54;100720.63;;;24.08;40.23
67015;BME280;1033;52.560;13.374;2022-07-25T05:55:23;100727.03;;;24.27;40.59
67015;BME280;1033;52.560;13.374;2022-07-25T05:57:52;100719.97;;;24.16;40.42
67015;BME280;1033;52.560;13.374;2022-07-25T06:00:21;100722.22;;;24.14;40.44
67015;BME280;1033;52.560;13.374;2022-07-25T06:02:51;100716.59;;;24.24;40.45
67015;BME280;1033;52.560;13.374;2022-07-25T06:05:20;100717.56;;;24.33;40.60
67015;BME280;1033;52.560;13.374;2022-07-25T06:07:51;100718.53;;;24.42;40.49
67015;BME280;1033;52.560;13.374;2022-07-25T06:10:20;100713.97;;;24.51;40.43
67015;BME280;1033;52.560;13.374;2022-07-25T06:12:49;100702.84;;;24.56;40.40
67015;BME280;1033;52.560;13.374;2022-07-25T06:15:19;100705.75;;;24.65;40.08
67015;BME280;1033;52.560;13.374;2022-07-25T06:17:53;100689.88;;;24.71;40.12
67015;BME280;1033;52.560;13.374;2022-07-25T06:20:22;100688.56;;;24.87;39.80
67015;BME280;1033;52.560;13.374;2022-07-25T06:22:53;100692.94;;;25.06;39.71
67015;BME280;1033;52.560;13.374;2022-07-25T06:25:22;100686.97;;;25.13;39.60
67015;BME280;1033;52.560;13.374;2022-07-25T06:27:51;100683.44;;;25.26;39.77
67015;BME280;1033;52.560;13.374;2022-07-25T06:30:21;100679.69;;;25.49;39.49
67015;BME280;1033;52.560;13.374;2022-07-25T06:32:50;100680.69;;;25.53;39.05
67015;BME280;1033;52.560;13.374;2022-07-25T06:35:19;100679.03;;;25.52;38.69
67015;BME280;1033;52.560;13.374;2022-07-25T06:37:48;100667.59;;;25.59;39.00
67015;BME280;1033;52.560;13.374;2022-07-25T06:40:19;100662.38;;;25.85;38.93
67015;BME280;1033;52.560;13.374;2022-07-25T06:42:48;100667.56;;;26.00;38.70
67015;BME280;1033;52.560;13.374;2022-07-25T06:45:17;100666.31;;;26.06;38.64
67015;BME280;1033;52.560;13.374;2022-07-25T06:47:46;100654.00;;;26.12;38.40
67015;BME280;1033;52.560;13.374;2022-07-25T06:50:17;100662.94;;;26.23;38.26
67015;BME280;1033;52.560;13.374;2022-07-25T06:52:48;100657.47;;;26.54;38.05
67015;BME280;1033;52.560;13.374;2022-07-25T06:55:18;100654.97;;;26.66;37.96
67015;BME280;1033;52.560;13.374;2022-07-25T06:57:47;100654.09;;;26.57;37.52
67015;BME280;1033;52.560;13.374;2022-07-25T07:00:17;100653.84;;;26.67;37.77
67015;BME280;1033;52.560;13.374;2022-07-25T07:02:55;100653.44;;;26.82;37.45
67015;BME280;1033;52.560;13.374;2022-07-25T07:05:27;100644.88;;;26.92;37.88
67015;BME280;1033;52.560;13.374;2022-07-25T07:07:58;100638.50;;;26.92;37.59
67015;BME280;1033;52.560;13.374;2022-07-25T07:10:29;100641.09;;;27.10;37.72
67015;BME280;1033;52.560;13.374;2022-07-25T07:13:07;100632.06;;;27.36;37.16
67015;BME280;1033;52.560;13.374;2022-07-25T07:15:38;100630.31;;;27.48;37.03
67015;BME280;1033;52.560;13.374;2022-07-25T07:18:07;100622.88;;;27.57;36.70
67015;BME280;1033;52.560;13.374;2022-07-25T07:20:36;100615.81;;;27.60;37.17
67015;BME280;1033;52.560;13.374;2022-07-25T07:23:05;100613.72;;;27.74;36.83
67015;BME280;1033;52.560;13.374;2022-07-25T07:25:36;100614.44;;;27.97;36.93
67015;BME280;1033;52.560;13.374;2022-07-25T07:28:06;100613.66;;;28.14;37.02
67015;BME280;1033;52.560;13.374;2022-07-25T07:30:35;100608.13;;;28.31;36.58
67015;BME280;1033;52.560;13.374;2022-07-25T07:33:24;100606.81;;;28.37;36.18
67015;BME280;1033;52.560;13.374;2022-07-25T07:35:54;100612.88;;;28.39;36.33
67015;BME280;1033;52.560;13.374;2022-07-25T07:38:24;100604.03;;;28.37;36.02
67015;BME280;1033;52.560;13.374;2022-07-25T07:40:55;100602.38;;;28.53;35.75
67015;BME280;1033;52.560;13.374;2022-07-25T07:43:24;100590.09;;;28.54;35.56
67015;BME280;1033;52.560;13.374;2022-07-25T07:45:57;100592.22;;;28.57;36.25
67015;BME280;1033;52.560;13.374;2022-07-25T07:48:29;100586.97;;;28.90;36.18
67015;BME280;1033;52.560;13.374;2022-07-25T07:51:00;100594.63;;;28.93;35.76
67015;BME280;1033;52.560;13.374;2022-07-25T07:53:30;100585.88;;;29.12;35.92
67015;BME280;1033;52.560;13.374;2022-07-25T07:56:19;100583.59;;;29.05;35.52
67015;BME280;1033;52.560;13.374;2022-07-25T07:58:48;100585.09;;;29.03;35.63
67015;BME280;1033;52.560;13.374;2022-07-25T08:01:17;100575.66;;;29.24;35.18
67015;BME280;1033;52.560;13.374;2022-07-25T08:03:47;100587.78;;;29.37;35.33
67015;BME280;1033;52.560;13.374;2022-07-25T08:06:16;100581.41;;;29.28;35.19
67015;BME280;1033;52.560;13.374;2022-07-25T08:08:45;100574.81;;;29.41;34.93
67015;BME280;1033;52.560;13.374;2022-07-25T08:11:14;100580.00;;;29.51;35.18
67015;BME280;1033;52.560;13.374;2022-07-25T08:13:47;100571.31;;;29.73;35.12
67015;BME280;1033;52.560;13.374;2022-07-25T08:16:16;100568.09;;;29.92;34.24
67015;BME280;1033;52.560;13.374;2022-07-25T08:18:45;100566.63;;;29.95;34.59
67015;BME280;1033;52.560;13.374;2022-07-25T08:21:14;100570.91;;;30.13;34.40
67015;BME280;1033;52.560;13.374;2022-07-25T08:23:43;100563.06;;;30.27;34.44
67015;BME280;1033;52.560;13.374;2022-07-25T08:26:13;100556.66;;;30.47;34.01
67015;BME280;1033;52.560;13.374;2022-07-25T08:28:43;100563.47;;;30.58;33.81
67015;BME280;1033;52.560;13.374;2022-07-25T08:31:15;100557.88;;;30.58;33.95
67015;BME280;1033;52.560;13.374;2022-07-25T08:33:44;100559.75;;;30.67;33.76
67015;BME280;1033;52.560;13.374;2022-07-25T08:36:13;100550.88;;;30.64;33.77
67015;BME280;1033;52.560;13.374;2022-07-25T08:38:42;100553.94;;;30.59;34.11
67015;BME280;1033;52.560;13.374;2022-07-25T08:41:11;100551.16;;;30.72;34.31
67015;BME280;1033;52.560;13.374;2022-07-25T08:43:42;100554.00;;;30.84;34.09
67015;BME280;1033;52.560;13.374;2022-07-25T08:46:16;100563.91;;;30.93;33.70
67015;BME280;1033;52.560;13.374;2022-07-25T08:48:46;100561.19;;;30.85;33.88
67015;BME280;1033;52.560;13.374;2022-07-25T08:51:17;100552.56;;;30.90;33.81
67015;BME280;1033;52.560;13.374;2022-07-25T08:53:47;100549.66;;;30.74;34.05
67015;BME280;1033;52.560;13.374;2022-07-25T08:56:16;100545.81;;;30.79;34.14
67015;BME280;1033;52.560;13.374;2022-07-25T08:58:47;100540.94;;;31.00;33.65
67015;BME280;1033;52.560;13.374;2022-07-25T09:01:18;100540.53;;;31.10;33.67
67015;BME280;1033;52.560;13.374;2022-07-25T09:03:47;100531.69;;;31.20;33.98
67015;BME280;1033;52.560;13.374;2022-07-25T09:06:20;100526.31;;;31.39;33.30
67015;BME280;1033;52.560;13.374;2022-07-25T09:08:51;100525.03;;;31.49;33.61
67015;BME280;1033;52.560;13.374;2022-07-25T09:11:32;100522.00;;;31.54;33.18
67015;BME280;1033;52.560;13.374;2022-07-25T09:14:04;100516.28;;;31.63;33.07
67015;BME280;1033;52.560;13.374;2022-07-25T09:16:40;100509.72;;;31.83;32.92
67015;BME280;1033;52.560;13.374;2022-07-25T09:19:14;100508.25;;;32.01;32.82
67015;BME280;1033;52.560;13.374;2022-07-25T09:21:57;100515.59;;;32.06;32.62
67015;BME280;1033;52.560;13.374;2022-07-25T09:24:28;100508.06;;;31.94;32.99
67015;BME280;1033;52.560;13.374;2022-07-25T09:27:00;100505.72;;;31.96;32.92
67015;BME280;1033;52.560;13.374;2022-07-25T09:29:33;100498.94;;;31.97;33.18
67015;BME280;1033;52.560;13.374;2022-07-25T09:32:16;100481.34;;;32.24;32.89
67015;BME280;1033;52.560;13.374;2022-07-25T09:34:48;100487.50;;;32.58;32.50
67015;BME280;1033;52.560;13.374;2022-07-25T09:37:23;100475.09;;;32.59;32.77
67015;BME280;1033;52.560;13.374;2022-07-25T09:39:52;100474.72;;;32.45;32.63
67015;BME280;1033;52.560;13.374;2022-07-25T09:42:25;100473.56;;;32.46;33.03
67015;BME280;1033;52.560;13.374;2022-07-25T09:45:05;100473.34;;;32.66;32.92
67015;BME280;1033;52.560;13.374;2022-07-25T09:47:50;100461.88;;;32.71;32.89
67015;BME280;1033;52.560;13.374;2022-07-25T09:50:21;100455.19;;;32.76;32.58
67015;BME280;1033;52.560;13.374;2022-07-25T09:52:53;100457.59;;;32.77;32.89
67015;BME280;1033;52.560;13.374;2022-07-25T09:55:22;100459.69;;;32.96;32.82
67015;BME280;1033;52.560;13.374;2022-07-25T09:57:52;100456.78;;;33.08;32.48
67015;BME280;1033;52.560;13.374;2022-07-25T10:00:23;100435.59;;;33.27;32.34
67015;BME280;1033;52.560;13.374;2022-07-25T10:03:14;100441.16;;;33.42;32.03
67015;BME280;1033;52.560;13.374;2022-07-25T10:06:06;100436.69;;;33.22;31.89
67015;BME280;1033;52.560;13.374;2022-07-25T10:08:38;100434.59;;;33.35;32.09
67015;BME280;1033;52.560;13.374;2022-07-25T10:11:19;100426.56;;;33.52;31.81
67015;BME280;1033;52.560;13.374;2022-07-25T10:13:50;100421.34;;;33.70;31.61
67015;BME280;1033;52.560;13.374;2022-07-25T10:16:22;100424.56;;;34.11;31.07
67015;BME280;1033;52.560;13.374;2022-07-25T10:18:55;100410.22;;;34.16;30.68
67015;BME280;1033;52.560;13.374;2022-07-25T10:21:25;100416.34;;;34.18;30.77
67015;BME280;1033;52.560;13.374;2022-07-25T10:24:01;100409.44;;;33.96;30.46
67015;BME280;1033;52.560;13.374;2022-07-25T10:26:34;100406.41;;;34.04;31.13
67015;BME280;1033;52.560;13.374;2022-07-25T10:29:08;100399.75;;;34.13;30.44
67015;BME280;1033;52.560;13.374;2022-07-25T10:31:42;100391.94;;;34.22;30.62
67015;BME280;1033;52.560;13.374;2022-07-25T10:34:28;100390.41;;;34.28;30.29
67015;BME280;1033;52.560;13.374;2022-07-25T10:37:09;100394.78;;;34.25;30.12
67015;BME280;1033;52.560;13.374;2022-07-25T10:39:40;100390.56;;;34.35;29.70
67015;BME280;1033;52.560;13.374;2022-07-25T10:42:13;100393.56;;;34.45;29.80
67015;BME280;1033;52.560;13.374;2022-07-25T10:44:46;100372.81;;;34.76;29.70
67015;BME280;1033;52.560;13.374;2022-07-25T10:47:17;100376.47;;;35.07;29.17
67015;BME280;1033;52.560;13.374;2022-07-25T10:49:47;100374.00;;;35.02;28.53
67015;BME280;1033;52.560;13.374;2022-07-25T10:52:43;100355.50;;;35.01;28.92
67015;BME280;1033;52.560;13.374;2022-07-25T10:55:23;100369.44;;;34.67;29.20
67015;BME280;1033;52.560;13.374;2022-07-25T10:57:59;100356.13;;;34.64;28.68
67015;BME280;1033;52.560;13.374;2022-07-25T11:00:44;100352.50;;;34.64;29.11
67015;BME280;1033;52.560;13.374;2022-07-25T11:03:13;100353.19;;;34.57;29.10
67015;BME280;1033;52.560;13.374;2022-07-25T11:05:46;100342.69;;;34.51;29.59
67015;BME280;1033;52.560;13.374;2022-07-25T11:08:18;100339.59;;;34.59;29.28
67015;BME280;1033;52.560;13.374;2022-07-25T11:10:57;100337.25;;;34.87;29.25
67015;BME280;1033;52.560;13.374;2022-07-25T11:13:27;100324.91;;;35.22;28.90
67015;BME280;1033;52.560;13.374;2022-07-25T11:15:57;100334.53;;;35.54;27.90
67015;BME280;1033;52.560;13.374;2022-07-25T11:18:35;100327.09;;;35.36;27.99
67015;BME280;1033;52.560;13.374;2022-07-25T11:21:08;100337.84;;;35.30;28.13
67015;BME280;1033;52.560;13.374;2022-07-25T11:23:39;100323.75;;;35.26;27.97
67015;BME280;1033;52.560;13.374;2022-07-25T11:26:12;100328.41;;;35.45;27.26
67015;BME280;1033;52.560;13.374;2022-07-25T11:28:44;100324.03;;;35.48;27.42
67015;BME280;1033;52.560;13.374;2022-07-25T11:31:14;100317.13;;;35.75;26.78
67015;BME280;1033;52.560;13.374;2022-07-25T11:33:47;100302.97;;;36.08;26.30
67015;BME280;1033;52.560;13.374;2022-07-25T11:36:18;100315.16;;;36.16;26.24
67015;BME280;1033;52.560;13.374;2022-07-25T11:38:48;100295.09;;;36.21;26.47
67015;BME280;1033;52.560;13.374;2022-07-25T11:41:28;100289.44;;;36.21;26.47
67015;BME280;1033;52.560;13.374;2022-07-25T11:43:57;100295.31;;;36.53;25.87
67015;BME280;1033;52.560;13.374;2022-07-25T11:46:26;100291.97;;;36.91;25.82
67015;BME280;1033;52.560;13.374;2022-07-25T11:49:04;100304.94;;;36.48;25.81
67015;BME280;1033;52.560;13.374;2022-07-25T11:51:38;100296.19;;;36.13;25.82
67015;BME280;1033;52.560;13.374;2022-07-25T11:54:09;100278.00;;;36.07;25.58
67015;BME280;1033;52.560;13.374;2022-07-25T11:56:40;100278.59;;;36.23;25.45
67015;BME280;1033;52.560;13.374;2022-07-25T11:59:10;100277.22;;;36.54;25.21
67015;BME280;1033;52.560;13.374;2022-07-25T12:01:41;100287.34;;;36.62;24.39
67015;BME280;1033;52.560;13.374;2022-07-25T12:04:14;100270.34;;;36.51;24.59
67015;BME280;1033;52.560;13.374;2022-07-25T12:06:47;100264.88;;;36.69;24.53
67015;BME280;1033;52.560;13.374;2022-07-25T12:09:19;100263.38;;;36.93;24.89
67015;BME280;1033;52.560;13.374;2022-07-25T12:11:49;100252.66;;;36.54;25.17
67015;BME280;1033;52.560;13.374;2022-07-25T12:14:19;100261.13;;;36.58;25.42
67015;BME280;1033;52.560;13.374;2022-07-25T12:16:48;100259.81;;;36.41;24.90
67015;BME280;1033;52.560;13.374;2022-07-25T12:19:20;100244.16;;;36.47;25.76
67015;BME280;1033;52.560;13.374;2022-07-25T12:21:51;100243.53;;;36.72;25.53
67015;BME280;1033;52.560;13.374;2022-07-25T12:24:20;100235.59;;;36.33;25.63
67015;BME280;1033;52.560;13.374;2022-07-25T12:26:50;100237.94;;;36.21;26.01
67015;BME280;1033;52.560;13.374;2022-07-25T12:29:19;100217.88;;;36.33;26.24
67015;BME280;1033;52.560;13.374;2022-07-25T12:31:48;100238.03;;;36.35;25.89
67015;BME280;1033;52.560;13.374;2022-07-25T12:34:17;100220.97;;;36.68;25.69
67015;BME280;1033;52.560;13.374;2022-07-25T12:36:46;100214.50;;;36.68;24.67
67015;BME280;1033;52.560;13.374;2022-07-25T12:39:16;100208.56;;;36.94;24.26
67015;BME280;1033;52.560;13.374;2022-07-25T12:41:46;100216.28;;;37.04;23.89
67015;BME280;1033;52.560;13.374;2022-07-25T12:44:14;100206.63;;;37.05;23.38
67015;BME280;1033;52.560;13.374;2022-07-25T12:46:44;100192.56;;;37.16;24.04
67015;BME280;1033;52.560;13.374;2022-07-25T12:49:16;100199.09;;;37.37;23.77
67015;BME280;1033;52.560;13.374;2022-07-25T12:51:45;100205.59;;;37.63;23.61
67015;BME280;1033;52.560;13.374;2022-07-25T12:54:17;100196.69;;;37.47;23.17
67015;BME280;1033;52.560;13.374;2022-07-25T12:56:49;100183.84;;;37.70;23.64
67015;BME280;1033;52.560;13.374;2022-07-25T12:59:18;100189.06;;;37.79;23.07
67015;BME280;1033;52.560;13.374;2022-07-25T13:01:47;100188.25;;;37.82;23.53
67015;BME280;1033;52.560;13.374;2022-07-25T13:04:17;100191.50;;;37.66;23.69
67015;BME280;1033;52.560;13.374;2022-07-25T13:06:46;100182.97;;;37.52;23.92
67015;BME280;1033;52.560;13.374;2022-07-25T13:09:17;100177.78;;;37.82;23.64